Time;durP1;ratioP1;P1;durP2;ratioP2;P2;SDS_P1;SDS_P2;PMS_P1;PMS_P2;Temp;Humidity;BMP_temperature;BMP_pressure;BME280_temperature;BME280_humidity;BME280_pressure;Samples;Min_cycle;Max_cycle;Signal;HPM_P1;HPM_P2
2022/04/18 00:00:53;;;;;;;0.98;0.95;;;;;;;6.94;53.70;98953.50;4071116;29;20216;-54
2022/04/18 00:02:55;;;;;;;1.33;1.23;;;;;;;6.91;53.97;98955.81;4118011;28;21063;-54
2022/04/18 00:04:57;;;;;;;1.48;1.38;;;;;;;6.90;54.07;98951.44;4093087;28;20285;-54
2022/04/18 00:07:02;;;;;;;1.70;1.60;;;;;;;6.86;54.13;98955.63;4092690;28;20213;-55
2022/04/18 00:09:04;;;;;;;1.48;1.38;;;;;;;6.84;54.26;98949.56;4079934;28;20211;-55
2022/04/18 00:11:06;;;;;;;5.10;1.60;;;;;;;6.77;54.17;98954.19;4109775;28;20317;-54
2022/04/18 00:13:08;;;;;;;1.40;1.33;;;;;;;6.72;54.14;98943.13;4079723;28;20211;-56
2022/04/18 00:15:10;;;;;;;1.23;1.20;;;;;;;6.70;54.60;98937.06;4117520;28;20230;-54
2022/04/18 00:17:12;;;;;;;1.75;1.73;;;;;;;6.74;54.42;98938.28;4085206;28;20754;-54
2022/04/18 00:19:13;;;;;;;2.50;1.70;;;;;;;6.69;54.34;98935.41;4083006;28;20341;-54
2022/04/18 00:21:15;;;;;;;1.42;1.33;;;;;;;6.69;53.97;98927.25;4092691;28;20843;-54
2022/04/18 00:23:17;;;;;;;1.55;1.45;;;;;;;6.63;53.82;98922.66;4079657;28;20220;-54
2022/04/18 00:25:18;;;;;;;1.10;1.10;;;;;;;6.60;53.64;98925.81;4085244;28;20376;-55
2022/04/18 00:27:20;;;;;;;1.10;1.10;;;;;;;6.57;53.87;98924.34;4086315;28;20258;-54
2022/04/18 00:29:22;;;;;;;1.83;1.73;;;;;;;6.54;54.11;98921.22;4096274;28;20234;-55
2022/04/18 00:31:24;;;;;;;1.30;1.20;;;;;;;6.48;53.61;98922.09;4075446;28;20303;-54
2022/04/18 00:33:26;;;;;;;1.10;1.10;;;;;;;6.42;53.95;98912.09;4076574;28;20463;-54
2022/04/18 00:35:28;;;;;;;0.93;0.93;;;;;;;6.40;53.83;98919.59;4078098;28;22271;-55
2022/04/18 00:37:29;;;;;;;1.55;1.55;;;;;;;6.36;53.51;98912.94;4108568;28;20249;-55
2022/04/18 00:39:31;;;;;;;1.20;1.20;;;;;;;6.35;54.14;98906.66;4093154;28;20268;-56
2022/04/18 00:41:33;;;;;;;1.30;1.20;;;;;;;6.33;54.06;98907.91;4110784;28;20210;-55
2022/04/18 00:43:48;;;;;;;0.98;0.98;;;;;;;6.32;54.56;98906.25;4085912;28;20203;-54
2022/04/18 00:45:50;;;;;;;2.10;1.08;;;;;;;6.30;54.46;98903.75;4102085;28;20872;-55
2022/04/18 00:47:51;;;;;;;1.40;1.30;;;;;;;6.26;54.60;98904.38;4117390;28;20221;-55
2022/04/18 00:49:53;;;;;;;2.08;1.98;;;;;;;6.23;54.97;98902.09;4083163;29;20219;-55
2022/04/18 00:51:55;;;;;;;1.35;1.35;;;;;;;6.17;55.67;98902.97;4082670;28;21043;-55
2022/04/18 00:53:58;;;;;;;2.13;1.95;;;;;;;6.12;55.67;98894.59;4095405;28;20245;-54
2022/04/18 00:55:59;;;;;;;2.03;1.92;;;;;;;6.10;55.53;98896.69;4085350;29;20274;-54
2022/04/18 00:58:02;;;;;;;1.65;1.55;;;;;;;6.05;55.93;98896.50;4081563;28;20211;-53
2022/04/18 01:00:04;;;;;;;2.67;2.30;;;;;;;5.95;56.03;98893.41;4093640;28;20243;-54
2022/04/18 01:02:06;;;;;;;1.30;1.30;;;;;;;5.89;56.33;98886.91;4109012;28;20201;-54
2022/04/18 01:04:08;;;;;;;1.25;1.17;;;;;;;5.79;56.54;98888.34;4075792;29;20677;-54
2022/04/18 01:06:10;;;;;;;2.40;1.60;;;;;;;5.78;56.65;98884.81;4113719;28;20743;-54
2022/04/18 01:08:13;;;;;;;2.08;1.98;;;;;;;5.77;56.94;98887.75;4089193;28;20211;-54
2022/04/18 01:10:15;;;;;;;1.88;1.73;;;;;;;5.73;57.27;98883.75;4117258;28;20246;-54
2022/04/18 01:12:16;;;;;;;1.77;1.55;;;;;;;5.68;57.15;98881.69;4087018;29;20219;-55
2022/04/18 01:14:18;;;;;;;2.08;1.98;;;;;;;5.69;57.58;98879.81;4101026;28;20226;-55
2022/04/18 01:16:20;;;;;;;2.38;2.17;;;;;;;5.64;57.53;98885.03;4090765;28;20656;-54
2022/04/18 01:18:22;;;;;;;1.60;1.50;;;;;;;5.62;57.32;98887.94;4087724;29;20302;-54
2022/04/18 01:20:25;;;;;;;1.80;1.70;;;;;;;5.65;57.33;98881.28;4099819;28;20215;-54
2022/04/18 01:22:28;;;;;;;1.52;1.50;;;;;;;5.68;57.43;98881.69;4115413;28;20205;-53
2022/04/18 01:29:19;;;;;;;2.30;2.15;;;;;;;5.72;57.70;98876.66;4091413;29;20204;-55
2022/04/18 01:31:21;;;;;;;2.00;1.85;;;;;;;5.65;57.70;98871.25;4088941;28;20298;-55
2022/04/18 01:33:23;;;;;;;1.88;1.77;;;;;;;5.62;57.69;98866.25;4102243;28;20225;-54
2022/04/18 01:35:25;;;;;;;1.95;1.83;;;;;;;5.57;57.79;98863.31;4085362;29;20297;-54
2022/04/18 01:37:27;;;;;;;1.60;1.60;;;;;;;5.51;58.03;98863.34;4100250;28;20348;-54
2022/04/18 01:39:28;;;;;;;2.97;2.78;;;;;;;5.47;58.13;98859.34;4086524;29;20230;-55
2022/04/18 01:41:30;;;;;;;1.92;1.67;;;;;;;5.40;58.22;98861.22;4090452;29;20214;-55
2022/04/18 01:43:32;;;;;;;1.80;1.60;;;;;;;5.38;57.99;98864.19;4099931;28;20269;-54
2022/04/18 01:45:34;;;;;;;2.00;1.90;;;;;;;5.37;58.47;98865.19;4087758;29;20274;-54
2022/04/18 01:47:37;;;;;;;1.27;1.17;;;;;;;5.36;58.11;98860.81;4100430;28;20210;-55
2022/04/18 01:49:38;;;;;;;1.58;1.48;;;;;;;5.40;58.18;98869.38;4073402;29;20208;-55
2022/04/18 01:51:40;;;;;;;1.35;1.33;;;;;;;5.40;58.28;98856.66;4086805;29;20238;-54
2022/04/18 01:53:42;;;;;;;1.38;1.33;;;;;;;5.44;57.90;98862.50;4084406;28;20211;-55
2022/04/18 01:55:43;;;;;;;1.70;1.60;;;;;;;5.46;58.08;98861.25;4086263;29;20338;-54
2022/04/18 01:57:45;;;;;;;1.70;1.40;;;;;;;5.49;58.29;98860.00;4088286;29;20654;-54
2022/04/18 01:59:47;;;;;;;1.13;1.13;;;;;;;5.46;58.18;98863.13;4086876;28;20211;-55
2022/04/18 02:01:49;;;;;;;2.30;2.05;;;;;;;5.43;58.50;98856.22;4100977;28;20321;-54
2022/04/18 02:03:51;;;;;;;1.73;1.63;;;;;;;5.41;58.30;98860.19;4097973;28;20235;-54
2022/04/18 02:05:55;;;;;;;2.10;1.95;;;;;;;5.35;58.67;98858.34;4093127;28;20262;-54
2022/04/18 02:07:56;;;;;;;1.73;1.63;;;;;;;5.32;58.52;98858.72;4088376;28;20576;-55
2022/04/18 02:09:58;;;;;;;1.83;1.55;;;;;;;5.29;58.47;98848.31;4093816;29;20246;-54
2022/04/18 02:12:00;;;;;;;1.60;1.50;;;;;;;5.27;58.59;98850.38;4086123;28;20298;-54
2022/04/18 02:14:02;;;;;;;1.85;1.75;;;;;;;5.24;58.72;98850.81;4099110;28;20207;-55
2022/04/18 02:16:04;;;;;;;1.45;1.35;;;;;;;5.19;59.03;98845.16;4086151;29;20657;-56
2022/04/18 02:18:06;;;;;;;1.50;1.40;;;;;;;5.12;58.71;98844.34;4101720;28;20218;-55
2022/04/18 02:20:08;;;;;;;1.90;1.40;;;;;;;5.22;58.44;98839.34;4084815;28;20235;-55
2022/04/18 02:22:09;;;;;;;1.63;1.52;;;;;;;5.16;58.58;98840.19;4073280;29;20276;-54
2022/04/18 02:24:14;;;;;;;1.70;1.60;;;;;;;5.08;58.08;98834.94;4089750;29;22495;-55
2022/04/18 02:26:15;;;;;;;1.42;1.33;;;;;;;5.03;58.48;98839.31;4117419;28;20230;-53
2022/04/18 02:28:17;;;;;;;2.08;1.98;;;;;;;5.03;58.50;98827.41;4090417;28;20214;-54
2022/04/18 02:30:19;;;;;;;1.77;1.67;;;;;;;5.00;58.48;98835.13;4089613;29;20207;-54
2022/04/18 02:34:41;;;;;;;1.75;1.65;;;;;;;5.01;58.59;98833.28;4084225;28;20729;-53
2022/04/18 02:36:42;;;;;;;1.38;1.33;;;;;;;4.98;58.57;98826.38;4097628;28;20302;-53
2022/04/18 02:38:44;;;;;;;3.13;2.13;;;;;;;4.95;58.83;98829.53;4087751;28;20219;-55
2022/04/18 02:40:46;;;;;;;1.70;1.60;;;;;;;4.95;58.84;98826.81;4085472;29;20254;-53
2022/04/18 02:42:48;;;;;;;1.40;1.30;;;;;;;4.93;59.03;98831.59;4083222;28;20203;-53
2022/04/18 02:44:50;;;;;;;3.38;1.92;;;;;;;4.91;58.66;98828.25;4101955;28;20231;-53
2022/04/18 02:46:52;;;;;;;3.17;2.45;;;;;;;4.94;58.79;98833.25;4083365;28;20215;-54
2022/04/18 02:48:53;;;;;;;2.20;2.10;;;;;;;4.86;59.01;98830.75;4085302;28;20223;-54
2022/04/18 02:50:55;;;;;;;1.30;1.30;;;;;;;4.82;58.53;98829.50;4117718;28;20743;-54
2022/04/18 02:52:57;;;;;;;1.20;1.20;;;;;;;4.77;58.44;98831.13;4088724;28;20196;-53
2022/04/18 02:54:59;;;;;;;1.58;1.45;;;;;;;4.69;58.84;98837.59;4087919;28;20270;-56
2022/04/18 02:57:01;;;;;;;1.52;1.40;;;;;;;4.64;59.13;98826.53;4099101;28;20379;-55
2022/04/18 02:59:02;;;;;;;1.58;1.25;;;;;;;4.64;58.84;98831.97;4101307;28;20627;-54
2022/04/18 03:01:04;;;;;;;2.00;1.90;;;;;;;4.65;58.87;98828.19;4112645;28;20217;-56
2022/04/18 03:03:06;;;;;;;1.77;1.65;;;;;;;4.65;59.24;98828.19;4084719;28;20237;-55
2022/04/18 03:05:09;;;;;;;1.58;1.48;;;;;;;4.61;59.34;98826.94;4090143;29;20334;-54
2022/04/18 03:07:11;;;;;;;2.13;1.60;;;;;;;4.59;59.16;98823.59;4090126;29;20267;-53
2022/04/18 03:09:15;;;;;;;1.45;1.35;;;;;;;4.57;59.43;98822.97;4084638;28;20585;-54
2022/04/18 03:11:16;;;;;;;1.60;1.27;;;;;;;4.58;58.96;98826.50;4083159;28;20745;-54
2022/04/18 03:13:18;;;;;;;1.42;1.40;;;;;;;4.45;59.03;98821.91;4101077;28;20221;-54
2022/04/18 03:15:20;;;;;;;1.10;1.10;;;;;;;4.29;59.58;98822.28;4094415;29;20278;-53
2022/04/18 03:17:22;;;;;;;1.48;1.48;;;;;;;4.38;58.94;98814.78;4119766;28;20265;-53
2022/04/18 03:19:24;;;;;;;1.30;1.30;;;;;;;4.42;58.83;98816.91;4101946;28;21212;-54
2022/04/18 03:21:26;;;;;;;1.20;1.20;;;;;;;4.44;58.61;98809.41;4087626;29;20216;-54
2022/04/18 03:23:27;;;;;;;1.98;1.88;;;;;;;4.48;58.90;98821.47;4114852;28;20214;-55
2022/04/18 03:25:29;;;;;;;1.10;1.10;;;;;;;4.50;59.00;98819.41;4069169;29;20710;-54
2022/04/18 03:27:31;;;;;;;2.33;1.48;;;;;;;4.50;59.09;98819.41;4115671;28;20242;-54
2022/04/18 03:29:32;;;;;;;1.35;1.25;;;;;;;4.49;58.74;98815.03;4100829;28;20220;-54
2022/04/18 03:31:34;;;;;;;1.30;1.30;;;;;;;4.42;58.96;98811.47;4084781;28;20231;-54
2022/04/18 03:33:36;;;;;;;1.55;1.45;;;;;;;4.31;59.32;98819.34;4096577;28;20605;-54
2022/04/18 03:35:37;;;;;;;4.15;1.35;;;;;;;4.26;59.65;98811.00;4086766;29;20275;-55
2022/04/18 03:39:59;;;;;;;1.40;1.40;;;;;;;4.22;59.99;98820.56;4087037;29;20235;-54
2022/04/18 03:42:02;;;;;;;1.92;1.83;;;;;;;4.21;60.32;98822.44;4112856;28;20214;-54
2022/04/18 03:44:03;;;;;;;4.50;1.20;;;;;;;4.15;60.64;98814.28;4087531;29;20203;-56
2022/04/18 03:46:05;;;;;;;1.60;1.50;;;;;;;4.15;60.05;98815.09;4084147;28;20203;-55
2022/04/18 03:48:07;;;;;;;1.30;1.20;;;;;;;4.14;60.47;98818.84;4098607;28;20207;-56
2022/04/18 03:50:09;;;;;;;2.03;1.83;;;;;;;4.13;60.58;98813.66;4099346;28;20211;-56
2022/04/18 03:52:11;;;;;;;1.50;1.40;;;;;;;4.10;60.66;98814.06;4084399;29;20212;-54
2022/04/18 03:54:13;;;;;;;1.75;1.65;;;;;;;4.10;60.30;98812.19;4085444;29;20974;-56
2022/04/18 03:56:14;;;;;;;1.70;1.60;;;;;;;4.08;60.46;98806.13;4116047;28;20237;-56
2022/04/18 03:58:16;;;;;;;2.05;1.95;;;;;;;4.04;60.85;98802.16;4088515;29;20243;-54
2022/04/18 04:00:18;;;;;;;1.90;1.80;;;;;;;4.01;60.61;98802.56;4083829;29;20216;-55
2022/04/18 04:02:19;;;;;;;1.20;1.20;;;;;;;3.95;61.25;98803.34;4080876;28;20278;-54
2022/04/18 04:04:22;;;;;;;1.50;1.50;;;;;;;3.90;60.47;98802.31;4081910;29;20325;-55
2022/04/18 04:06:24;;;;;;;1.55;1.45;;;;;;;3.90;60.99;98805.84;4085934;29;20246;-53
2022/04/18 04:08:25;;;;;;;1.65;1.55;;;;;;;3.90;60.50;98803.16;4118937;28;20262;-54
2022/04/18 04:10:30;;;;;;;1.27;1.27;;;;;;;3.85;60.79;98802.91;4088566;28;20247;-53
2022/04/18 04:12:32;;;;;;;1.77;1.67;;;;;;;3.82;60.70;98803.31;4119012;28;20215;-54
2022/04/18 04:14:33;;;;;;;1.50;1.40;;;;;;;3.78;60.69;98801.19;4092403;28;20295;-54
2022/04/18 04:16:37;;;;;;;1.67;1.58;;;;;;;3.72;61.31;98794.72;4090440;28;20274;-55
2022/04/18 04:18:39;;;;;;;1.38;1.38;;;;;;;3.72;61.29;98797.44;4086974;29;20208;-55
2022/04/18 04:20:41;;;;;;;1.60;1.50;;;;;;;3.75;60.96;98804.31;4118674;28;20234;-55
2022/04/18 04:22:51;;;;;;;1.30;1.27;;;;;;;3.75;61.32;98798.91;4084440;28;20211;-55
2022/04/18 04:24:53;;;;;;;1.20;1.20;;;;;;;3.73;60.79;98799.09;4093390;28;20241;-55
2022/04/18 04:26:55;;;;;;;2.42;2.33;;;;;;;3.74;61.60;98799.94;4093108;29;20203;-54
2022/04/18 04:28:57;;;;;;;1.60;1.50;;;;;;;3.68;61.30;98801.56;4087385;29;20271;-55
2022/04/18 04:30:59;;;;;;;1.45;1.35;;;;;;;3.66;61.89;98798.22;4087447;28;20208;-55
2022/04/18 04:33:00;;;;;;;1.50;1.40;;;;;;;3.58;61.47;98798.38;4099134;28;20262;-55
2022/04/18 04:35:03;;;;;;;1.20;1.20;;;;;;;3.58;62.00;98798.38;4101704;28;20237;-55
2022/04/18 04:37:05;;;;;;;1.60;1.58;;;;;;;3.66;61.95;98806.34;4118390;28;20225;-55
2022/04/18 04:39:07;;;;;;;3.72;2.05;;;;;;;3.64;61.23;98810.28;4088488;28;20219;-55
2022/04/18 04:41:08;;;;;;;1.67;1.58;;;;;;;3.62;61.62;98796.97;4103771;28;20284;-55
2022/04/18 04:43:10;;;;;;;1.58;1.48;;;;;;;3.64;61.54;98794.88;4089041;29;20216;-55
2022/04/18 04:45:12;;;;;;;1.42;1.42;;;;;;;3.67;61.42;98805.28;4090228;29;20227;-55
2022/04/18 04:47:14;;;;;;;2.20;2.05;;;;;;;3.65;61.54;98801.97;4117251;28;20753;-58
2022/04/18 04:49:15;;;;;;;1.33;1.33;;;;;;;3.68;61.94;98812.38;4120070;28;20214;-55
2022/04/18 04:51:17;;;;;;;1.05;1.05;;;;;;;3.64;61.31;98808.41;4094743;29;20211;-55
2022/04/18 04:53:19;;;;;;;1.70;1.60;;;;;;;3.62;61.14;98813.19;4107171;28;20937;-55
2022/04/18 04:55:20;;;;;;;1.33;1.33;;;;;;;3.60;61.63;98812.53;4102769;28;20313;-54
2022/04/18 04:57:22;;;;;;;1.80;1.70;;;;;;;3.55;61.77;98806.88;4105313;28;20238;-54
2022/04/18 04:59:24;;;;;;;1.98;1.88;;;;;;;3.55;61.58;98806.88;4090952;29;20611;-54
2022/04/18 05:01:25;;;;;;;2.08;1.98;;;;;;;3.61;61.69;98800.69;4089893;28;20204;-54
2022/04/18 05:03:27;;;;;;;1.50;1.50;;;;;;;3.63;61.58;98803.19;4104080;28;20219;-55
2022/04/18 05:05:29;;;;;;;1.45;1.40;;;;;;;3.68;61.15;98811.56;4101405;28;20230;-56
2022/04/18 05:07:31;;;;;;;1.60;1.48;;;;;;;3.72;61.52;98807.41;4104047;28;20215;-53
2022/04/18 05:09:32;;;;;;;1.58;1.48;;;;;;;3.73;61.62;98804.50;4093346;29;20215;-56
2022/04/18 05:11:34;;;;;;;1.83;1.70;;;;;;;3.76;61.48;98803.28;4087602;29;20215;-54
2022/04/18 05:13:36;;;;;;;1.67;1.58;;;;;;;3.75;61.59;98802.44;4104275;28;20246;-55
2022/04/18 05:15:37;;;;;;;1.30;1.20;;;;;;;3.72;60.94;98808.25;4089287;28;20659;-55
2022/04/18 05:17:39;;;;;;;1.65;1.55;;;;;;;3.73;61.17;98809.91;4075624;29;20231;-54
2022/04/18 05:19:41;;;;;;;1.50;1.40;;;;;;;3.75;61.32;98810.53;4118323;28;20210;-53
2022/04/18 05:21:43;;;;;;;1.52;1.42;;;;;;;3.80;61.15;98810.78;4116187;28;20246;-53
2022/04/18 05:23:45;;;;;;;1.52;1.42;;;;;;;3.84;61.27;98812.06;4099763;28;20215;-57
2022/04/18 05:25:46;;;;;;;1.60;1.50;;;;;;;3.89;61.11;98817.72;4100921;28;20318;-56
2022/04/18 05:27:48;;;;;;;1.52;1.42;;;;;;;3.98;61.51;98813.81;4087585;29;20227;-55
2022/04/18 05:29:50;;;;;;;1.10;1.10;;;;;;;4.15;61.84;98809.69;4088719;29;20211;-56
2022/04/18 05:31:52;;;;;;;1.65;1.55;;;;;;;4.31;61.64;98814.78;4120150;28;20913;-54
2022/04/18 05:33:53;;;;;;;1.33;1.33;;;;;;;4.44;61.51;98814.81;4103339;28;20210;-54
2022/04/18 05:35:55;;;;;;;5.78;1.88;;;;;;;4.62;61.33;98811.53;4104100;28;20238;-55
2022/04/18 05:37:57;;;;;;;1.33;1.33;;;;;;;4.78;60.80;98811.97;4092452;29;20235;-54
2022/04/18 05:39:58;;;;;;;1.42;1.42;;;;;;;5.00;61.57;98818.88;4091561;29;20783;-54
2022/04/18 05:42:01;;;;;;;1.20;1.20;;;;;;;5.02;61.09;98808.66;4093918;29;20215;-54
2022/04/18 05:44:03;;;;;;;1.13;1.13;;;;;;;4.95;59.81;98820.53;4099631;28;20232;-55
2022/04/18 05:46:04;;;;;;;1.83;1.73;;;;;;;5.17;60.37;98822.84;4100583;28;20261;-54
2022/04/18 05:48:06;;;;;;;1.20;1.20;;;;;;;5.27;60.18;98824.09;4087184;29;20251;-55
2022/04/18 05:50:08;;;;;;;1.42;1.38;;;;;;;5.39;59.77;98827.84;4087636;28;20227;-55
2022/04/18 05:52:10;;;;;;;1.30;1.25;;;;;;;5.57;60.29;98825.31;4086660;28;20251;-56
2022/04/18 05:54:12;;;;;;;1.50;1.40;;;;;;;5.70;60.11;98828.00;4094623;29;20214;-55
2022/04/18 05:56:13;;;;;;;1.90;1.80;;;;;;;5.88;59.53;98824.69;4093710;29;20677;-54
2022/04/18 05:58:15;;;;;;;4.05;1.52;;;;;;;6.04;59.36;98816.06;4101720;28;20306;-56
2022/04/18 06:00:17;;;;;;;1.05;1.05;;;;;;;6.13;58.90;98823.75;4099575;28;20309;-55
2022/04/18 06:02:19;;;;;;;1.45;1.35;;;;;;;5.75;57.88;98833.66;4099484;28;20298;-55
2022/04/18 06:04:21;;;;;;;1.83;1.73;;;;;;;5.80;57.96;98819.47;4114371;28;20230;-55
2022/04/18 06:06:23;;;;;;;1.70;1.60;;;;;;;5.97;58.17;98821.50;4089315;29;20753;-56
2022/04/18 06:08:25;;;;;;;2.35;1.20;;;;;;;6.06;57.85;98819.38;4099163;28;20210;-54
2022/04/18 06:10:26;;;;;;;1.70;1.38;;;;;;;6.36;58.21;98823.25;4097768;28;20810;-56
2022/04/18 06:12:28;;;;;;;1.23;1.23;;;;;;;6.48;58.47;98807.94;4099093;28;20214;-54
2022/04/18 06:14:30;;;;;;;1.52;1.42;;;;;;;6.75;58.09;98812.19;4101836;28;20265;-54
2022/04/18 06:16:31;;;;;;;1.65;1.58;;;;;;;6.83;57.83;98811.91;4100793;28;20230;-54
2022/04/18 06:18:33;;;;;;;1.45;1.35;;;;;;;7.13;58.16;98818.38;4103515;28;20262;-54
2022/04/18 06:20:35;;;;;;;1.33;1.30;;;;;;;7.39;57.39;98827.19;4102244;28;20203;-55
2022/04/18 06:22:36;;;;;;;1.85;1.75;;;;;;;7.39;57.02;98812.72;4084781;28;20208;-54
2022/04/18 06:24:38;;;;;;;1.67;1.60;;;;;;;7.68;56.26;98823.75;4101993;28;20253;-54
2022/04/18 06:26:40;;;;;;;1.75;1.65;;;;;;;8.31;55.45;98824.38;4098413;28;20238;-56
2022/04/18 06:28:41;;;;;;;1.35;1.25;;;;;;;8.63;53.52;98823.13;4086250;29;20539;-54
2022/04/18 06:30:43;;;;;;;1.15;1.15;;;;;;;9.01;52.76;98823.66;4098866;28;20277;-55
2022/04/18 06:32:45;;;;;;;1.33;1.33;;;;;;;8.99;53.13;98829.34;4084356;29;20218;-54
2022/04/18 06:34:47;;;;;;;1.17;1.13;;;;;;;9.31;52.21;98832.63;4083089;29;20617;-54
2022/04/18 06:36:48;;;;;;;2.00;1.48;;;;;;;9.65;51.45;98834.56;4115928;28;20292;-55
2022/04/18 06:38:50;;;;;;;1.25;1.25;;;;;;;9.66;51.90;98836.22;4091385;29;20255;-55
2022/04/18 06:40:51;;;;;;;1.58;1.48;;;;;;;9.58;51.58;98833.84;4082182;28;20212;-54
2022/04/18 06:42:53;;;;;;;1.30;1.30;;;;;;;9.59;51.65;98824.56;4097865;28;20624;-53
2022/04/18 06:44:55;;;;;;;2.17;1.73;;;;;;;9.78;51.50;98823.41;4085165;29;20287;-54
2022/04/18 06:46:56;;;;;;;1.30;1.30;;;;;;;9.94;50.93;98833.66;4116623;28;20268;-54
2022/04/18 06:48:58;;;;;;;2.38;2.17;;;;;;;10.32;50.31;98826.59;4091666;29;20219;-54
2022/04/18 06:51:00;;;;;;;1.27;1.13;;;;;;;10.54;49.74;98827.63;4086275;28;20214;-54
2022/04/18 06:53:02;;;;;;;1.33;1.23;;;;;;;10.54;49.62;98824.06;4085526;28;20295;-55
2022/04/18 06:55:04;;;;;;;1.00;1.00;;;;;;;10.73;48.87;98818.16;4086737;29;20227;-54
2022/04/18 06:57:05;;;;;;;1.63;1.52;;;;;;;11.23;48.82;98819.94;4093257;29;20246;-53
2022/04/18 06:59:08;;;;;;;1.17;0.95;;;;;;;11.49;48.08;98819.31;4118401;28;20202;-54
2022/04/18 07:01:10;;;;;;;0.90;0.90;;;;;;;11.63;48.17;98814.38;4083429;28;20220;-55
2022/04/18 07:03:12;;;;;;;1.38;1.30;;;;;;;11.73;47.77;98815.38;4097000;28;20210;-54
2022/04/18 07:05:14;;;;;;;2.20;1.33;;;;;;;11.89;47.16;98820.00;4085012;28;20254;-54
2022/04/18 07:07:15;;;;;;;2.05;1.30;;;;;;;12.18;47.18;98807.78;4083066;29;20492;-54
2022/04/18 07:09:18;;;;;;;1.23;1.10;;;;;;;11.95;46.74;98824.47;4083642;28;20216;-53
2022/04/18 07:11:19;;;;;;;1.20;1.15;;;;;;;12.41;47.38;98813.06;4084426;28;20602;-55
2022/04/18 07:13:21;;;;;;;1.40;1.30;;;;;;;12.45;46.95;98808.72;4099747;28;20632;-53
2022/04/18 07:15:23;;;;;;;1.50;1.40;;;;;;;12.59;46.85;98812.75;4088207;28;20227;-54
2022/04/18 07:17:25;;;;;;;1.35;1.25;;;;;;;13.32;45.20;98804.81;4097313;28;20297;-54
2022/04/18 07:19:28;;;;;;;1.20;1.10;;;;;;;12.94;43.71;98807.69;4096797;28;20210;-53
2022/04/18 07:21:30;;;;;;;1.50;1.40;;;;;;;12.17;43.76;98806.13;4085408;28;20212;-59
2022/04/18 07:23:32;;;;;;;1.20;1.10;;;;;;;11.90;45.60;98816.16;4086700;28;20219;-52
2022/04/18 07:25:34;;;;;;;1.95;1.45;;;;;;;12.07;44.28;98805.16;4101850;28;20277;-52
2022/04/18 07:27:36;;;;;;;1.20;1.10;;;;;;;12.19;45.86;98809.47;4088550;28;20211;-52
2022/04/18 07:29:38;;;;;;;1.30;1.20;;;;;;;13.19;44.71;98813.47;4119616;28;20207;-52
2022/04/18 07:31:40;;;;;;;1.40;1.15;;;;;;;13.35;43.71;98809.78;4120640;28;20206;-52
2022/04/18 07:33:42;;;;;;;1.33;1.23;;;;;;;12.32;42.25;98803.63;4117890;28;20203;-52
2022/04/18 07:35:43;;;;;;;1.70;1.13;;;;;;;12.69;42.42;98799.13;4103706;28;20906;-52
2022/04/18 07:40:06;;;;;;;1.92;1.65;;;;;;;12.45;42.88;98797.72;4086276;29;20698;-52
2022/04/18 07:42:08;;;;;;;3.53;1.40;;;;;;;12.24;42.00;98804.03;4089838;29;20679;-53
2022/04/18 07:44:09;;;;;;;1.25;1.13;;;;;;;12.11;41.86;98801.66;4094712;29;20245;-52
2022/04/18 07:46:12;;;;;;;1.73;1.63;;;;;;;12.32;42.02;98798.13;4095913;28;20211;-53
2022/04/18 07:48:13;;;;;;;1.40;1.30;;;;;;;12.50;41.54;98810.72;4092639;28;20216;-53
2022/04/18 07:50:15;;;;;;;1.10;1.10;;;;;;;13.56;41.58;98819.06;4123009;28;20218;-51
2022/04/18 07:52:17;;;;;;;0.98;0.98;;;;;;;13.96;41.28;98822.94;4096262;29;20207;-52
2022/04/18 07:54:20;;;;;;;0.95;0.95;;;;;;;14.17;40.11;98813.72;4099351;29;20261;-53
2022/04/18 07:56:22;;;;;;;1.48;1.38;;;;;;;13.50;41.08;98812.66;4094058;29;20266;-52
2022/04/18 07:58:23;;;;;;;1.95;1.33;;;;;;;13.71;39.40;98814.47;4107098;28;20234;-52
2022/04/18 08:00:25;;;;;;;1.58;1.48;;;;;;;13.45;39.87;98815.38;4091310;28;20211;-52
2022/04/18 08:02:27;;;;;;;1.38;1.15;;;;;;;14.46;39.76;98816.97;4107713;28;20210;-52
2022/04/18 08:04:29;;;;;;;0.85;0.85;;;;;;;14.78;39.97;98809.41;4110907;28;20239;-52
2022/04/18 08:06:33;;;;;;;1.92;1.48;;;;;;;14.71;41.21;98814.31;4098418;28;20200;-52
2022/04/18 08:08:34;;;;;;;1.42;1.30;;;;;;;14.47;38.80;98802.94;4105312;28;20207;-52
2022/04/18 08:10:36;;;;;;;1.02;0.98;;;;;;;15.01;38.85;98792.38;4096170;28;20727;-52
2022/04/18 08:12:38;;;;;;;3.50;1.20;;;;;;;15.20;36.98;98801.78;4105133;28;20219;-52
2022/04/18 08:14:43;;;;;;;0.98;0.98;;;;;;;15.53;38.04;98802.16;4093098;29;20227;-52
2022/04/18 08:16:44;;;;;;;3.95;1.48;;;;;;;15.42;38.35;98799.69;4090832;28;20574;-52
2022/04/18 08:18:46;;;;;;;1.20;1.10;;;;;;;15.96;37.30;98804.34;4097163;29;20227;-52
2022/04/18 08:20:49;;;;;;;1.08;1.00;;;;;;;16.29;37.27;98795.47;4097377;29;20206;-52
2022/04/18 08:22:50;;;;;;;1.52;1.00;;;;;;;15.37;37.15;98808.75;4104800;28;20226;-52
2022/04/18 08:24:52;;;;;;;0.98;0.98;;;;;;;14.81;37.92;98803.34;4105590;28;20346;-53
2022/04/18 08:26:54;;;;;;;1.58;1.10;;;;;;;15.48;38.38;98807.66;4089141;29;20212;-53
2022/04/18 08:28:56;;;;;;;1.60;0.93;;;;;;;15.68;37.18;98810.44;4105885;28;20632;-53
2022/04/18 08:30:58;;;;;;;1.05;1.00;;;;;;;15.13;37.44;98809.50;4095415;29;20211;-52
2022/04/18 08:33:00;;;;;;;1.98;1.88;;;;;;;15.64;37.26;98801.03;4102681;28;20881;-53
2022/04/18 08:35:03;;;;;;;1.48;1.00;;;;;;;16.21;37.60;98793.28;4089131;29;20314;-53
2022/04/18 08:37:04;;;;;;;1.63;1.52;;;;;;;15.49;36.95;98805.75;4087466;29;22719;-52
2022/04/18 08:39:06;;;;;;;1.08;0.98;;;;;;;16.26;37.92;98806.25;4105507;28;20228;-52
2022/04/18 08:41:10;;;;;;;2.28;2.08;;;;;;;16.48;37.29;98804.84;4118562;28;20206;-52
2022/04/18 08:43:12;;;;;;;1.58;1.10;;;;;;;16.93;36.76;98802.72;4091056;29;20207;-52
2022/04/18 08:45:14;;;;;;;1.70;1.60;;;;;;;16.79;35.28;98800.88;4109169;28;20239;-51
2022/04/18 08:52:43;;;;;;;1.27;1.17;;;;;;;17.05;36.64;98799.63;4091432;29;20941;-53
2022/04/18 08:54:23;;;;;;;1.42;1.08;;;;;;;17.63;35.11;98809.78;4085029;28;20290;-52
2022/04/18 08:56:26;;;;;;;0.88;0.88;;;;;;;17.83;35.07;98801.31;4086604;28;20216;-52
2022/04/18 08:58:28;;;;;;;1.10;1.00;;;;;;;17.45;35.41;98803.00;4088975;29;20223;-52
2022/04/18 09:00:30;;;;;;;3.03;0.90;;;;;;;17.57;36.07;98805.41;4102837;28;20694;-52
2022/04/18 09:02:32;;;;;;;1.30;0.90;;;;;;;17.93;35.38;98806.78;4102744;28;20230;-52
2022/04/18 09:04:34;;;;;;;1.27;0.90;;;;;;;17.90;35.33;98807.34;4097405;29;20310;-52
2022/04/18 09:06:38;;;;;;;1.35;0.85;;;;;;;17.62;33.79;98800.66;4096468;28;20250;-52
2022/04/18 09:08:46;;;;;;;1.27;1.17;;;;;;;16.46;33.84;98801.53;4098565;28;20273;-52
2022/04/18 09:10:48;;;;;;;1.33;1.23;;;;;;;16.00;34.16;98801.88;4087383;28;20287;-53
2022/04/18 09:12:51;;;;;;;1.27;0.98;;;;;;;15.62;34.66;98794.97;4099639;28;20217;-54
2022/04/18 09:14:53;;;;;;;1.45;0.90;;;;;;;15.92;34.70;98795.00;4115186;28;20234;-53
2022/04/18 09:16:54;;;;;;;1.55;0.98;;;;;;;14.87;35.44;98800.34;4103579;28;20515;-52
2022/04/18 09:19:05;;;;;;;0.98;0.98;;;;;;;15.32;35.16;98797.72;4093805;28;20248;-54
2022/04/18 09:21:08;;;;;;;1.15;1.05;;;;;;;15.08;35.15;98793.78;4089977;28;20207;-53
2022/04/18 09:23:28;;;;;;;1.23;1.13;;;;;;;14.95;35.98;98788.78;4091221;29;20259;-52
2022/04/18 09:25:30;;;;;;;2.65;1.30;;;;;;;14.93;36.41;98787.41;4091992;28;20235;-52
2022/04/18 09:27:32;;;;;;;2.30;1.10;;;;;;;14.89;35.53;98781.59;4096333;29;20211;-50
2022/04/18 09:29:38;;;;;;;1.73;1.45;;;;;;;14.98;35.68;98787.41;4102980;28;20235;-51
2022/04/18 09:31:41;;;;;;;1.38;1.33;;;;;;;15.21;35.21;98782.22;4088683;28;20294;-54
2022/04/18 09:33:54;;;;;;;1.20;1.10;;;;;;;15.76;35.02;98785.03;4088314;29;20291;-52
2022/04/18 09:36:07;;;;;;;1.10;1.05;;;;;;;16.04;34.32;98787.22;4116111;28;20233;-52
2022/04/18 09:38:09;;;;;;;1.15;1.00;;;;;;;15.98;33.81;98777.31;4113904;28;20207;-52
2022/04/18 09:40:11;;;;;;;1.00;0.95;;;;;;;15.90;34.35;98777.84;4085144;28;20262;-52
2022/04/18 09:42:14;;;;;;;1.73;1.25;;;;;;;15.85;34.88;98777.88;4073376;29;20982;-53
2022/04/18 09:44:26;;;;;;;1.23;1.13;;;;;;;15.40;35.39;98764.09;4086016;28;20219;-52
2022/04/18 09:46:27;;;;;;;1.10;0.82;;;;;;;15.44;35.20;98762.41;4086379;28;20923;-52
2022/04/18 09:48:31;;;;;;;3.65;0.98;;;;;;;15.64;34.98;98765.19;4114747;28;20217;-48
2022/04/18 09:52:53;;;;;;;1.30;1.20;;;;;;;16.74;35.80;98759.41;4087987;28;20242;-52
2022/04/18 09:54:57;;;;;;;1.73;1.20;;;;;;;16.63;35.25;98760.56;4087824;29;20224;-52
2022/04/18 09:57:03;;;;;;;4.70;2.90;;;;;;;17.22;34.83;98755.81;4104154;28;20633;-51
2022/04/18 09:59:05;;;;;;;3.03;2.75;;;;;;;17.14;33.92;98748.13;4087562;29;20235;-52